Time;durP1;ratioP1;P1;durP2;ratioP2;P2;SDS_P1;SDS_P2;PMS_P1;PMS_P2;Temp;Humidity;BMP_temperature;BMP_pressure;BME280_temperature;BME280_humidity;BME280_pressure;Samples;Min_cycle;Max_cycle;Signal;HPM_P1;HPM_P2
2021/07/15 00:01:57;;;;;;;2.70;1.73;;;22.30;66.60;;;;;;21078242;28;20064;-19
2021/07/15 00:11:58;;;;;;;3.88;1.30;;;22.30;66.90;;;;;;21078045;28;20048;-19
2021/07/15 00:21:59;;;;;;;8.23;2.45;;;22.30;67.10;;;;;;21077863;28;20044;-19
2021/07/15 00:31:59;;;;;;;3.63;1.00;;;22.30;66.80;;;;;;21148163;22;20067;-19
2021/07/15 00:42:00;;;;;;;5.00;1.70;;;22.30;66.30;;;;;;21073892;28;20030;-19
2021/07/15 00:52:02;;;;;;;2.22;0.98;;;22.20;66.40;;;;;;21074939;28;20476;-20
2021/07/15 01:02:04;;;;;;;1.92;1.38;;;22.20;65.80;;;;;;21065185;28;20592;-19
2021/07/15 01:12:12;;;;;;;4.28;1.85;;;22.20;65.50;;;;;;21057100;28;20032;-19
2021/07/15 01:22:23;;;;;;;1.65;1.27;;;22.20;65.40;;;;;;21062073;28;20024;-20
2021/07/15 01:32:46;;;;;;;4.50;1.13;;;22.10;65.00;;;;;;21068700;28;20032;-19
2021/07/15 01:42:59;;;;;;;6.07;1.42;;;22.10;66.10;;;;;;21051894;28;20037;-19
2021/07/15 01:53:00;;;;;;;3.78;2.10;;;22.10;66.60;;;;;;21047341;28;20040;-20
2021/07/15 02:03:04;;;;;;;3.22;1.83;;;22.10;66.30;;;;;;21045205;28;20043;-20
2021/07/15 02:13:07;;;;;;;3.40;1.70;;;22.10;65.90;;;;;;21081247;28;20087;-20
2021/07/15 02:23:09;;;;;;;7.35;2.38;;;22.10;66.50;;;;;;21052491;28;20029;-20
2021/07/15 02:33:12;;;;;;;7.28;2.17;;;22.10;65.80;;;;;;21048716;28;20041;-20
2021/07/15 02:43:12;;;;;;;5.07;2.03;;;22.10;65.60;;;;;;21051994;28;20036;-20
2021/07/15 02:53:14;;;;;;;4.45;1.60;;;22.10;66.20;;;;;;21023905;28;20182;-20
2021/07/15 03:03:27;;;;;;;6.65;1.83;;;22.10;65.50;;;;;;21054997;28;20036;-20
2021/07/15 03:13:28;;;;;;;6.05;1.80;;;22.00;65.50;;;;;;21066567;28;20453;-20
2021/07/15 03:23:29;;;;;;;7.65;1.70;;;22.00;65.40;;;;;;21130187;28;20032;-20
2021/07/15 03:33:31;;;;;;;8.40;1.85;;;22.00;65.10;;;;;;21162296;28;20047;-20
2021/07/15 03:43:34;;;;;;;11.60;2.35;;;22.00;64.90;;;;;;21145631;28;20023;-20
2021/07/15 03:53:38;;;;;;;8.23;2.17;;;22.00;64.80;;;;;;21163456;28;20049;-20
2021/07/15 04:03:40;;;;;;;7.72;1.60;;;22.00;64.80;;;;;;21161850;28;20496;-20
2021/07/15 04:13:43;;;;;;;10.55;2.00;;;21.90;64.60;;;;;;21160555;28;20054;-20
2021/07/15 04:23:44;;;;;;;9.82;2.00;;;21.90;64.70;;;;;;21161063;28;20062;-20
2021/07/15 04:33:46;;;;;;;8.20;2.30;;;21.90;65.20;;;;;;21159272;28;20044;-20
2021/07/15 04:43:48;;;;;;;7.97;1.52;;;21.90;64.60;;;;;;21158900;28;20571;-20
2021/07/15 04:53:49;;;;;;;8.82;2.08;;;21.90;64.50;;;;;;21158066;28;20027;-20
2021/07/15 05:03:50;;;;;;;8.00;1.55;;;21.90;65.10;;;;;;21171271;28;20034;-21
2021/07/15 05:13:51;;;;;;;12.53;3.10;;;21.80;64.90;;;;;;21154542;28;20024;-20
2021/07/15 05:23:51;;;;;;;9.23;2.50;;;21.90;64.90;;;;;;21144988;28;20139;-20
2021/07/15 05:33:52;;;;;;;17.13;2.00;;;22.00;64.70;;;;;;21155818;28;20043;-21
2021/07/15 05:43:52;;;;;;;10.67;2.40;;;21.90;65.00;;;;;;21153805;28;20092;-20
2021/07/15 05:53:53;;;;;;;17.25;3.10;;;21.90;65.40;;;;;;21143125;28;20091;-20
2021/07/15 06:03:53;;;;;;;5.65;1.65;;;21.90;66.00;;;;;;21161696;28;20031;-20
2021/07/15 06:13:54;;;;;;;7.97;1.40;;;21.90;66.10;;;;;;21143170;28;20663;-20
2021/07/15 06:23:55;;;;;;;5.17;1.80;;;22.00;66.10;;;;;;21117289;28;20055;-20
2021/07/15 06:33:55;;;;;;;7.53;1.55;;;21.90;66.20;;;;;;21139112;22;20059;-19
2021/07/15 06:43:56;;;;;;;3.13;1.10;;;22.00;66.20;;;;;;21076181;28;20085;-19
2021/07/15 06:53:57;;;;;;;5.55;1.30;;;22.00;66.20;;;;;;21085551;28;20020;-19
2021/07/15 07:03:57;;;;;;;3.00;1.20;;;22.00;66.80;;;;;;21081878;28;20448;-19
2021/07/15 07:13:58;;;;;;;4.57;1.02;;;21.90;66.40;;;;;;21078475;28;20032;-19
2021/07/15 07:23:59;;;;;;;4.50;1.45;;;22.10;66.80;;;;;;21083159;28;20028;-20
2021/07/15 07:34:00;;;;;;;4.03;1.30;;;22.20;67.00;;;;;;21083430;28;20079;-19
2021/07/15 07:44:00;;;;;;;4.15;1.73;;;22.20;66.90;;;;;;21076561;28;20086;-19
2021/07/15 07:54:02;;;;;;;2.80;1.02;;;22.30;67.00;;;;;;21058781;28;20117;-19
2021/07/15 08:04:03;;;;;;;1.42;0.73;;;22.20;66.60;;;;;;21060154;28;20542;-18
2021/07/15 08:14:04;;;;;;;1.30;0.93;;;22.30;66.50;;;;;;21060445;28;20074;-19
2021/07/15 08:24:05;;;;;;;3.33;1.27;;;22.40;66.80;;;;;;21057743;28;20035;-19
2021/07/15 08:34:06;;;;;;;4.72;0.70;;;22.40;66.80;;;;;;21063004;28;20046;-19
2021/07/15 08:44:06;;;;;;;1.50;0.90;;;22.40;66.90;;;;;;21058213;28;20063;-20
2021/07/15 08:54:07;;;;;;;6.18;1.40;;;22.40;67.20;;;;;;21052045;28;20039;-18
2021/07/15 09:04:09;;;;;;;3.40;1.67;;;22.40;67.70;;;;;;21050333;28;20134;-19
2021/07/15 09:14:22;;;;;;;6.13;1.65;;;22.50;68.40;;;;;;21045406;28;20180;-20
2021/07/15 09:24:28;;;;;;;5.43;1.45;;;22.50;68.10;;;;;;21051685;28;20032;-19
2021/07/15 09:34:32;;;;;;;3.53;1.33;;;22.60;68.20;;;;;;21029801;28;20040;-19
2021/07/15 09:44:35;;;;;;;5.53;1.15;;;22.60;67.90;;;;;;21051118;28;20036;-19
2021/07/15 09:54:36;;;;;;;1.75;1.13;;;22.60;67.50;;;;;;21052174;28;20024;-20
2021/07/15 10:04:36;;;;;;;5.22;1.13;;;22.60;67.40;;;;;;21040005;28;20039;-19
2021/07/15 10:14:39;;;;;;;5.00;1.35;;;22.60;67.60;;;;;;21057473;28;20028;-19
2021/07/15 10:24:40;;;;;;;2.75;0.90;;;22.70;67.80;;;;;;21041069;28;20028;-19
2021/07/15 10:34:43;;;;;;;2.25;1.20;;;22.60;68.10;;;;;;21067291;28;20563;-19
2021/07/15 10:44:45;;;;;;;2.63;1.30;;;22.70;67.70;;;;;;21054413;28;20482;-19
2021/07/15 10:54:47;;;;;;;1.80;1.27;;;22.70;67.90;;;;;;21062396;28;20024;-19
2021/07/15 11:04:48;;;;;;;3.30;1.40;;;22.70;67.90;;;;;;21056089;28;20078;-19
2021/07/15 11:14:49;;;;;;;1.30;1.10;;;22.80;68.00;;;;;;21051261;28;20032;-19
2021/07/15 11:25:01;;;;;;;2.53;0.70;;;22.70;67.80;;;;;;21055145;28;20376;-20
2021/07/15 11:35:29;;;;;;;3.63;1.13;;;22.70;67.50;;;;;;21044682;28;20082;-19
2021/07/15 11:46:06;;;;;;;1.60;0.93;;;22.70;67.70;;;;;;21047122;28;20028;-19
2021/07/15 11:56:21;;;;;;;7.30;1.33;;;22.80;67.70;;;;;;21077715;28;20414;-19
2021/07/15 12:06:22;;;;;;;3.78;0.98;;;22.70;67.70;;;;;;21074481;28;20226;-19
2021/07/15 12:16:23;;;;;;;2.40;1.23;;;22.80;67.90;;;;;;21051994;28;20078;-19
2021/07/15 12:26:24;;;;;;;1.85;1.15;;;22.70;67.80;;;;;;21059695;28;20098;-19
2021/07/15 12:36:26;;;;;;;2.63;0.80;;;22.70;67.80;;;;;;21068272;22;20036;-19
2021/07/15 12:46:29;;;;;;;1.55;0.70;;;22.80;67.80;;;;;;20991947;28;20454;-20
2021/07/15 12:56:30;;;;;;;1.55;0.82;;;22.70;68.00;;;;;;20991982;28;20028;-21
2021/07/15 13:06:32;;;;;;;1.70;1.20;;;22.80;68.20;;;;;;20986802;28;20055;-20
2021/07/15 13:16:39;;;;;;;2.80;1.20;;;22.80;68.30;;;;;;20989270;28;20055;-20
2021/07/15 13:26:45;;;;;;;1.58;0.75;;;22.70;68.30;;;;;;21002552;28;20151;-24
2021/07/15 13:36:54;;;;;;;1.50;1.02;;;22.70;68.40;;;;;;20969111;28;20406;-20
2021/07/15 13:47:07;;;;;;;1.52;1.08;;;22.80;68.50;;;;;;20979977;28;20029;-20
2021/07/15 13:57:09;;;;;;;1.08;0.88;;;22.70;69.00;;;;;;20978758;28;20483;-19
2021/07/15 14:07:13;;;;;;;1.90;1.15;;;22.70;68.50;;;;;;20982495;28;20116;-20
2021/07/15 14:17:21;;;;;;;1.33;0.98;;;22.80;68.50;;;;;;20973180;28;20037;-19
2021/07/15 14:27:23;;;;;;;1.00;0.80;;;22.80;68.60;;;;;;20958863;28;20170;-20
2021/07/15 14:37:23;;;;;;;3.17;0.93;;;22.80;68.60;;;;;;20963261;28;20476;-20
2021/07/15 14:47:24;;;;;;;1.10;0.75;;;22.70;68.60;;;;;;20954059;28;20027;-20
2021/07/15 14:57:24;;;;;;;1.30;0.82;;;22.80;68.70;;;;;;20984148;28;20039;-20
2021/07/15 15:07:25;;;;;;;4.78;1.40;;;22.70;68.60;;;;;;20988769;28;20044;-21
2021/07/15 15:17:26;;;;;;;2.17;0.95;;;22.90;68.80;;;;;;20987658;28;20480;-20
2021/07/15 15:27:26;;;;;;;5.10;1.13;;;22.80;68.70;;;;;;20987818;28;20028;-21
2021/07/15 15:37:27;;;;;;;6.67;1.30;;;22.80;68.70;;;;;;20997540;28;20040;-20
2021/07/15 15:47:28;;;;;;;3.00;1.00;;;22.90;68.70;;;;;;20996074;28;20043;-20
2021/07/15 15:57:28;;;;;;;2.20;1.10;;;22.90;68.70;;;;;;20996374;28;20403;-20
2021/07/15 16:07:30;;;;;;;1.90;1.33;;;22.80;68.70;;;;;;20995575;28;20619;-21
2021/07/15 16:17:32;;;;;;;4.15;1.08;;;22.80;68.70;;;;;;21004261;28;20023;-21
2021/07/15 16:27:34;;;;;;;6.45;1.63;;;22.90;68.70;;;;;;20997660;28;20494;-20
2021/07/15 16:37:38;;;;;;;3.15;0.98;;;22.80;69.20;;;;;;20991525;28;20036;-19
2021/07/15 16:47:38;;;;;;;2.65;1.10;;;22.80;68.70;;;;;;20991933;28;20029;-21
2021/07/15 16:57:41;;;;;;;2.45;0.90;;;22.90;68.60;;;;;;20998298;28;20056;-19
2021/07/15 17:07:43;;;;;;;3.78;1.27;;;23.00;68.30;;;;;;20979440;28;20264;-21
2021/07/15 17:17:43;;;;;;;1.60;1.30;;;23.00;68.20;;;;;;20989720;28;20021;-20
2021/07/15 17:27:44;;;;;;;2.90;0.90;;;23.00;68.10;;;;;;20967535;28;20043;-20
2021/07/15 17:37:44;;;;;;;2.25;0.90;;;23.10;68.00;;;;;;20964105;28;20036;-20
2021/07/15 17:47:45;;;;;;;2.47;1.30;;;23.10;68.00;;;;;;20980406;28;20465;-19
2021/07/15 17:57:45;;;;;;;2.22;1.23;;;23.00;68.00;;;;;;20975198;28;20035;-21
2021/07/15 18:07:48;;;;;;;2.42;0.85;;;23.00;68.00;;;;;;20974950;28;20020;-19
2021/07/15 18:17:49;;;;;;;2.03;1.30;;;23.00;68.10;;;;;;20966657;28;20051;-21
2021/07/15 18:27:52;;;;;;;4.63;0.98;;;23.00;68.20;;;;;;20944410;28;20028;-21
2021/07/15 18:37:53;;;;;;;9.00;4.43;;;23.00;68.30;;;;;;21028893;22;20066;-19
2021/07/15 18:47:54;;;;;;;8.32;2.55;;;22.90;68.70;;;;;;21053987;28;20622;-19
2021/07/15 18:57:55;;;;;;;12.60;2.90;;;23.00;69.20;;;;;;21095549;28;20047;-19
2021/07/15 19:07:57;;;;;;;3.97;1.45;;;23.00;69.20;;;;;;21081345;28;20021;-19
2021/07/15 19:17:58;;;;;;;14.68;2.65;;;23.00;69.30;;;;;;21085412;28;20032;-19
2021/07/15 19:28:00;;;;;;;8.20;2.05;;;22.90;69.20;;;;;;21077648;28;20032;-18
2021/07/15 19:38:03;;;;;;;23.63;4.50;;;22.90;69.20;;;;;;21084635;28;20538;-19
2021/07/15 19:48:04;;;;;;;17.13;3.25;;;22.90;71.60;;;;;;21091205;28;20066;-19
2021/07/15 19:58:05;;;;;;;10.85;2.78;;;23.00;70.60;;;;;;21084186;28;20096;-19
2021/07/15 20:08:06;;;;;;;8.98;2.28;;;23.00;70.30;;;;;;21092617;28;20081;-21
2021/07/15 20:18:07;;;;;;;14.15;2.45;;;23.00;70.20;;;;;;21092876;28;20573;-20
2021/07/15 20:28:09;;;;;;;7.78;2.45;;;23.00;70.10;;;;;;21090382;28;20032;-20
2021/07/15 20:38:11;;;;;;;16.42;2.60;;;23.00;70.00;;;;;;21077147;28;20039;-19
2021/07/15 20:48:12;;;;;;;7.40;1.63;;;23.10;70.10;;;;;;21080370;28;20044;-20
2021/07/15 20:58:13;;;;;;;12.20;8.00;;;23.00;70.20;;;;;;21078356;28;20031;-19
2021/07/15 21:08:14;;;;;;;18.05;13.50;;;22.90;70.50;;;;;;21071203;28;20027;-19
2021/07/15 21:18:14;;;;;;;19.65;17.65;;;22.90;70.80;;;;;;21071284;28;20467;-20
2021/07/15 21:28:15;;;;;;;17.10;15.40;;;23.00;71.30;;;;;;21063093;28;20510;-20
2021/07/15 21:38:16;;;;;;;19.63;15.98;;;22.90;71.30;;;;;;21066541;28;20405;-19
2021/07/15 21:48:16;;;;;;;21.58;17.10;;;22.80;71.40;;;;;;21086477;28;20032;-20
2021/07/15 21:58:17;;;;;;;26.13;19.25;;;22.80;71.50;;;;;;21085942;28;20032;-20
2021/07/15 22:08:17;;;;;;;25.73;17.33;;;22.70;71.80;;;;;;21077076;28;20030;-20
2021/07/15 22:18:19;;;;;;;19.27;15.10;;;22.70;71.80;;;;;;21087939;28;20024;-20
2021/07/15 22:28:19;;;;;;;21.40;14.88;;;22.70;71.80;;;;;;21089447;28;20099;-19
2021/07/15 22:38:22;;;;;;;22.37;14.30;;;22.60;71.60;;;;;;21077265;28;20089;-19
2021/07/15 22:48:23;;;;;;;20.80;14.23;;;22.60;71.90;;;;;;21079813;28;20522;-19
2021/07/15 22:58:23;;;;;;;19.77;13.82;;;22.70;71.60;;;;;;21084471;28;20118;-19
2021/07/15 23:08:24;;;;;;;23.15;14.88;;;22.70;71.60;;;;;;21078175;28;20029;-20
2021/07/15 23:18:24;;;;;;;23.35;14.98;;;22.60;71.60;;;;;;21095660;28;20024;-19
2021/07/15 23:28:26;;;;;;;18.75;14.07;;;22.60;71.60;;;;;;21097373;28;20100;-21
2021/07/15 23:38:26;;;;;;;20.30;14.27;;;22.60;71.70;;;;;;21095019;28;20119;-19
2021/07/15 23:48:27;;;;;;;24.85;13.52;;;22.60;71.80;;;;;;21103529;28;20051;-19
2021/07/15 23:58:28;;;;;;;22.10;13.77;;;22.50;71.70;;;;;;21087335;28;20040;-20
